createdAt,value
2022-08-23T00:01:47.822Z,4.28
2022-08-23T00:06:42.485Z,4.43
2022-08-23T00:11:40.265Z,3.88
2022-08-23T00:16:35.801Z,3.63
2022-08-23T00:21:30.211Z,5.78
2022-08-23T00:26:23.761Z,3.53
2022-08-23T00:31:18.718Z,3.42
2022-08-23T00:36:13.496Z,4.80
2022-08-23T00:41:07.283Z,5.75
2022-08-23T00:46:52.887Z,3.70
2022-08-23T00:51:57.585Z,3.67
2022-08-23T00:56:52.678Z,5.50
2022-08-23T01:01:46.293Z,3.63
2022-08-23T01:06:56.667Z,3.92
2022-08-23T01:11:59.662Z,3.20
2022-08-23T01:17:01.585Z,3.20
2022-08-23T01:22:06.173Z,3.30
2022-08-23T01:27:35.847Z,2.88
2022-08-23T01:32:29.881Z,3.13
2022-08-23T01:37:23.788Z,5.28
2022-08-23T01:42:17.433Z,3.30
2022-08-23T01:47:12.581Z,3.50
2022-08-23T01:52:06.017Z,4.38
2022-08-23T01:57:00.205Z,3.08
2022-08-23T02:01:53.969Z,2.60
2022-08-23T02:06:48.787Z,3.88
2022-08-23T02:11:44.244Z,4.78
2022-08-23T02:16:41.727Z,3.03
2022-08-23T02:21:36.896Z,3.03
2022-08-23T02:26:31.691Z,3.47
2022-08-23T02:31:26.192Z,3.25
2022-08-23T02:41:18.726Z,4.38
2022-08-23T02:46:13.793Z,3.53
2022-08-23T02:51:09.729Z,3.28
2022-08-23T02:56:03.487Z,4.95
2022-08-23T03:00:56.994Z,3.78
2022-08-23T03:05:52.068Z,3.85
2022-08-23T03:10:46.273Z,3.70
2022-08-23T03:15:40.355Z,4.45
2022-08-23T03:20:34.295Z,4.85
2022-08-23T03:25:30.016Z,5.63
2022-08-23T03:30:23.384Z,3.67
2022-08-23T03:35:16.770Z,6.85
2022-08-23T03:40:12.037Z,6.20
2022-08-23T03:45:08.241Z,3.60
2022-08-23T03:50:01.683Z,4.10
2022-08-23T03:54:55.003Z,3.30
2022-08-23T03:59:48.956Z,4.00
2022-08-23T04:04:43.897Z,4.57
2022-08-23T04:09:37.236Z,4.40
2022-08-23T04:14:30.701Z,3.92
2022-08-23T04:19:24.296Z,4.50
2022-08-23T04:24:20.023Z,5.65
2022-08-23T04:29:23.111Z,4.97
2022-08-23T04:34:28.770Z,4.40
2022-08-23T04:39:23.561Z,5.50
2022-08-23T04:44:17.295Z,4.15
2022-08-23T04:49:11.544Z,7.95
2022-08-23T04:54:05.386Z,4.15
2022-08-23T04:59:00.152Z,3.92
2022-08-23T05:03:53.573Z,5.82
2022-08-23T05:08:48.770Z,6.93
2022-08-23T05:13:42.592Z,5.75
2022-08-23T05:18:37.353Z,6.75
2022-08-23T05:23:31.849Z,5.28
2022-08-23T05:28:30.250Z,5.78
2022-08-23T05:33:23.991Z,5.07
2022-08-23T05:38:20.906Z,5.28
2022-08-23T05:43:14.510Z,6.03
2022-08-23T05:48:07.860Z,4.82
2022-08-23T05:53:01.619Z,6.47
2022-08-23T05:57:56.412Z,4.15
2022-08-23T06:02:51.198Z,5.95
2022-08-23T06:07:44.551Z,3.90
2022-08-23T06:12:37.941Z,7.25
2022-08-23T06:17:33.087Z,4.50
2022-08-23T06:22:26.508Z,4.85
2022-08-23T06:27:19.848Z,4.68
2022-08-23T06:32:13.340Z,3.78
2022-08-23T06:37:11.163Z,4.18
2022-08-23T06:42:36.449Z,8.32
2022-08-23T06:47:23.755Z,4.93
2022-08-23T06:52:18.559Z,5.07
2022-08-23T06:57:13.010Z,5.80
2022-08-23T07:02:09.832Z,3.90
2022-08-23T07:07:07.132Z,5.80
2022-08-23T07:12:07.196Z,6.05
2022-08-23T07:17:03.566Z,4.13
2022-08-23T07:21:57.681Z,5.45
2022-08-23T07:26:53.011Z,6.57
2022-08-23T07:31:51.518Z,4.38
2022-08-23T07:36:47.879Z,3.90
2022-08-23T07:41:41.595Z,5.07
2022-08-23T07:46:36.320Z,4.55
2022-08-23T07:51:33.918Z,4.13
2022-08-23T07:56:27.239Z,5.15
2022-08-23T08:01:24.108Z,5.70
2022-08-23T08:06:22.646Z,4.97
2022-08-23T08:11:22.112Z,4.20
2022-08-23T08:16:27.254Z,4.13
2022-08-23T08:21:20.660Z,3.20
2022-08-23T08:26:14.373Z,4.97
2022-08-23T08:31:10.734Z,4.22
2022-08-23T08:36:05.295Z,4.53
2022-08-23T08:41:10.814Z,3.60
2022-08-23T08:46:14.234Z,5.60
2022-08-23T08:51:27.161Z,4.40
2022-08-23T08:56:32.405Z,5.18
2022-08-23T09:01:42.455Z,3.35
2022-08-23T09:07:04.324Z,4.07
2022-08-23T09:12:17.441Z,3.35
2022-08-23T09:17:29.864Z,4.07
2022-08-23T09:22:54.695Z,4.95
2022-08-23T09:28:05.256Z,3.10
2022-08-23T09:33:25.985Z,3.47
2022-08-23T09:38:43.840Z,3.65
2022-08-23T09:44:02.869Z,2.83
2022-08-23T09:49:46.336Z,2.97
2022-08-23T09:55:22.498Z,3.00
2022-08-23T10:01:01.257Z,3.10
2022-08-23T10:11:47.190Z,2.90
2022-08-23T10:29:53.652Z,1.77
2022-08-23T10:35:26.204Z,1.90
2022-08-23T10:40:29.863Z,3.45
2022-08-23T10:45:30.706Z,3.30
2022-08-23T10:50:24.508Z,1.80
2022-08-23T10:55:39.248Z,2.63
2022-08-23T11:00:36.050Z,1.65
2022-08-23T11:05:35.431Z,1.55
2022-08-23T11:10:56.147Z,2.47
2022-08-23T11:16:00.787Z,1.27
2022-08-23T11:21:07.670Z,1.20
2022-08-23T11:26:03.934Z,3.38
2022-08-23T11:31:21.192Z,2.08
2022-08-23T11:36:23.280Z,2.25
2022-08-23T11:41:33.360Z,1.45
2022-08-23T11:46:52.281Z,1.40
2022-08-23T11:52:21.235Z,2.30
2022-08-23T11:57:58.423Z,1.85
2022-08-23T12:03:46.038Z,1.88
2022-08-23T12:09:25.845Z,1.92
2022-08-23T12:15:12.029Z,1.73
2022-08-23T12:20:29.050Z,1.90
2022-08-23T12:25:42.580Z,2.60
2022-08-23T12:31:08.233Z,2.45
2022-08-23T12:38:12.377Z,2.60
2022-08-23T12:42:20.053Z,2.42
2022-08-23T12:48:12.017Z,2.13
2022-08-23T12:59:41.110Z,1.98
2022-08-23T13:04:43.201Z,2.45
2022-08-23T13:10:34.157Z,2.17
2022-08-23T13:15:58.355Z,2.15
2022-08-23T13:21:42.353Z,1.90
2022-08-23T13:26:58.581Z,2.15
2022-08-23T13:32:03.109Z,2.78
2022-08-23T13:37:05.376Z,2.15
2022-08-23T13:42:26.870Z,2.17
2022-08-23T13:48:28.519Z,1.83
2022-08-23T13:53:47.191Z,2.17
2022-08-23T13:58:44.370Z,1.80
2022-08-23T14:03:49.696Z,2.75
2022-08-23T14:14:58.351Z,3.00
2022-08-23T14:21:57.524Z,1.80
2022-08-23T14:27:29.961Z,1.90
2022-08-23T14:32:25.663Z,2.50
2022-08-23T14:49:39.425Z,2.30
2022-08-23T15:14:24.688Z,2.97
2022-08-23T15:27:10.879Z,2.35
2022-08-23T15:32:06.497Z,1.98
2022-08-23T15:37:11.244Z,3.85
2022-08-23T15:43:07.685Z,1.70
2022-08-23T15:48:17.108Z,1.60
2022-08-23T15:53:16.933Z,3.05
2022-08-23T15:58:18.133Z,1.52
2022-08-23T16:03:24.217Z,1.98
2022-08-23T16:08:24.751Z,2.30
2022-08-23T16:13:18.320Z,1.30
2022-08-23T16:18:16.068Z,1.98
2022-08-23T16:23:18.663Z,1.60
2022-08-23T16:28:12.111Z,1.70
2022-08-23T16:33:07.184Z,1.35
2022-08-23T16:38:02.316Z,1.65
2022-08-23T16:43:08.087Z,2.13
2022-08-23T16:48:01.991Z,1.70
2022-08-23T16:58:04.648Z,1.50
2022-08-23T17:02:59.248Z,1.58
2022-08-23T17:07:54.189Z,1.50
2022-08-23T17:12:54.236Z,1.45
2022-08-23T17:17:49.490Z,1.60
2022-08-23T17:22:43.195Z,2.30
2022-08-23T17:27:36.838Z,1.67
2022-08-23T17:32:30.425Z,1.63
2022-08-23T17:37:25.166Z,1.75
2022-08-23T17:42:19.028Z,2.35
2022-08-23T17:47:16.741Z,1.52
2022-08-23T17:52:11.579Z,1.80
2022-08-23T17:57:06.754Z,1.70
2022-08-23T18:03:12.983Z,3.78
2022-08-23T18:07:53.499Z,1.60
2022-08-23T18:12:48.418Z,2.78
2022-08-23T18:17:42.751Z,1.75
2022-08-23T18:22:47.288Z,3.47
2022-08-23T18:28:36.935Z,2.38
2022-08-23T18:33:47.031Z,3.65
2022-08-23T18:40:23.016Z,2.13
2022-08-23T18:45:25.627Z,2.75
2022-08-23T19:03:57.596Z,5.45
2022-08-23T20:00:08.465Z,4.65
2022-08-23T20:05:39.422Z,4.00
2022-08-23T20:11:18.102Z,3.60
2022-08-23T20:16:13.305Z,3.10
2022-08-23T20:21:07.714Z,2.88
2022-08-23T20:26:01.485Z,3.30
2022-08-23T20:30:55.062Z,2.85
2022-08-23T20:35:49.985Z,3.10
2022-08-23T20:40:45.218Z,3.45
2022-08-23T20:45:38.561Z,2.90
2022-08-23T20:50:35.010Z,2.90
2022-08-23T20:55:29.792Z,2.70
2022-08-23T21:00:23.462Z,2.78
2022-08-23T21:05:17.116Z,3.17
2022-08-23T21:10:11.206Z,2.60
2022-08-23T21:15:10.894Z,2.97
2022-08-23T21:20:08.022Z,5.07
2022-08-23T21:25:02.069Z,3.17
2022-08-23T21:29:55.727Z,3.40
2022-08-23T21:34:50.641Z,3.08
2022-08-23T21:39:44.103Z,2.72
2022-08-23T21:44:39.763Z,2.90
2022-08-23T21:49:35.222Z,3.55
2022-08-23T21:54:29.952Z,3.33
2022-08-23T21:59:23.491Z,2.97
2022-08-23T22:04:17.801Z,4.82
2022-08-23T22:09:15.943Z,3.03
2022-08-23T22:14:14.457Z,3.30
2022-08-23T22:19:08.103Z,3.20
2022-08-23T22:24:01.441Z,2.90
2022-08-23T22:28:54.927Z,3.13
2022-08-23T22:33:49.674Z,3.20
2022-08-23T22:38:44.412Z,3.63
2022-08-23T22:43:38.051Z,7.72
2022-08-23T22:48:35.129Z,3.33
2022-08-23T22:53:30.011Z,3.22
2022-08-23T22:58:23.398Z,3.33
2022-08-23T23:03:16.771Z,5.00
2022-08-23T23:08:29.398Z,5.63
2022-08-23T23:13:28.689Z,3.88
2022-08-23T23:24:44.393Z,3.35
2022-08-23T23:29:38.492Z,3.28
2022-08-23T23:34:32.083Z,3.30
2022-08-23T23:40:34.094Z,2.90
2022-08-23T23:45:55.784Z,3.35
2022-08-23T23:50:49.313Z,3.20
2022-08-23T23:57:10.172Z,4.03
